Time;durP1;ratioP1;P1;durP2;ratioP2;P2;SDS_P1;SDS_P2;PMS_P1;PMS_P2;Temp;Humidity;BMP_temperature;BMP_pressure;BME280_temperature;BME280_humidity;BME280_pressure;Samples;Min_cycle;Max_cycle;Signal;HPM_P1;HPM_P2
2023/04/08 00:01:03;;;;;;;8.05;3.08;;;5.30;99.90;;;;;;4991730;28;20230;-70
2023/04/08 00:03:29;;;;;;;5.37;2.90;;;5.30;99.90;;;;;;5004030;28;20919;-70
2023/04/08 00:05:55;;;;;;;7.97;2.93;;;5.30;99.90;;;;;;5012788;22;20042;-82
2023/04/08 00:08:20;;;;;;;6.53;2.87;;;5.30;99.90;;;;;;5002733;28;20719;-82
2023/04/08 00:10:46;;;;;;;6.70;2.97;;;5.20;99.90;;;;;;4987944;28;20285;-84
2023/04/08 00:13:13;;;;;;;6.57;3.37;;;5.20;99.90;;;;;;4985283;28;20045;-84
2023/04/08 00:15:40;;;;;;;6.32;3.00;;;5.10;99.90;;;;;;4989334;28;20064;-84
2023/04/08 00:18:06;;;;;;;5.00;3.03;;;5.20;99.90;;;;;;4982251;28;20648;-82
2023/04/08 00:20:32;;;;;;;7.28;3.35;;;5.10;99.90;;;;;;4988997;28;20038;-83
2023/04/08 00:23:00;;;;;;;7.13;3.53;;;5.10;99.90;;;;;;4985728;28;20037;-81
2023/04/08 00:25:30;;;;;;;6.00;3.20;;;5.10;99.90;;;;;;5009484;28;20029;-83
2023/04/08 00:27:56;;;;;;;7.07;3.33;;;5.10;99.90;;;;;;4982998;28;20042;-83
2023/04/08 00:30:21;;;;;;;12.30;3.53;;;5.10;99.90;;;;;;4997158;28;20457;-83
2023/04/08 00:32:56;;;;;;;6.60;3.50;;;5.10;99.90;;;;;;4995164;28;20041;-83
2023/04/08 00:35:25;;;;;;;5.80;2.97;;;5.00;99.90;;;;;;4987466;28;20380;-83
2023/04/08 00:37:56;;;;;;;8.07;4.13;;;5.00;99.90;;;;;;5000406;28;20048;-83
2023/04/08 00:40:24;;;;;;;7.97;3.85;;;5.00;99.90;;;;;;4977668;28;20069;-83
2023/04/08 00:42:50;;;;;;;7.68;3.70;;;5.00;99.90;;;;;;5002129;28;20056;-83
2023/04/08 00:45:16;;;;;;;7.70;3.40;;;5.00;99.90;;;;;;5013145;28;20560;-82
2023/04/08 00:47:42;;;;;;;7.83;3.90;;;5.00;99.90;;;;;;5022210;28;20523;-83
2023/04/08 00:50:10;;;;;;;9.45;3.65;;;4.90;99.90;;;;;;4981970;28;20029;-83
2023/04/08 00:52:36;;;;;;;8.10;4.03;;;4.90;99.90;;;;;;5016498;28;20044;-83
2023/04/08 00:55:05;;;;;;;9.27;4.50;;;4.90;99.90;;;;;;4977496;28;20042;-82
2023/04/08 00:57:31;;;;;;;8.68;4.57;;;4.90;99.90;;;;;;4983213;28;20038;-82
2023/04/08 00:59:57;;;;;;;8.40;4.72;;;4.90;99.90;;;;;;4981907;28;20169;-83
2023/04/08 01:02:56;;;;;;;7.82;4.10;;;4.80;99.90;;;;;;5004691;28;20049;-83
2023/04/08 01:06:03;;;;;;;9.40;4.38;;;4.90;99.90;;;;;;4991420;28;20072;-82
2023/04/08 01:08:33;;;;;;;13.07;4.43;;;4.80;99.90;;;;;;4992012;28;20145;-82
2023/04/08 01:11:04;;;;;;;8.75;4.35;;;4.80;99.90;;;;;;4970315;28;20061;-82
2023/04/08 01:13:35;;;;;;;9.27;4.72;;;4.70;99.90;;;;;;4984464;28;20042;-82
2023/04/08 01:16:03;;;;;;;9.50;5.10;;;4.80;99.90;;;;;;4974110;28;20493;-83
2023/04/08 01:18:30;;;;;;;10.05;5.25;;;4.70;99.90;;;;;;4996406;28;20041;-82
2023/04/08 01:21:00;;;;;;;8.18;5.05;;;4.70;99.90;;;;;;4977817;28;20045;-85
2023/04/08 01:23:56;;;;;;;9.07;5.28;;;4.60;99.90;;;;;;4979545;28;20113;-84
2023/04/08 01:26:25;;;;;;;10.35;5.10;;;4.70;99.90;;;;;;4990689;28;20042;-84
2023/04/08 01:29:03;;;;;;;8.68;5.00;;;4.60;99.90;;;;;;4999882;28;20647;-83
2023/04/08 01:31:38;;;;;;;11.90;5.43;;;4.70;99.90;;;;;;4983598;28;20084;-84
2023/04/08 01:34:05;;;;;;;9.07;4.95;;;4.60;99.90;;;;;;4993068;28;20173;-83
2023/04/08 01:36:35;;;;;;;9.43;5.55;;;4.60;99.90;;;;;;5009851;28;20417;-84
2023/04/08 01:39:05;;;;;;;10.77;5.53;;;4.60;99.90;;;;;;4977956;28;20042;-83
2023/04/08 01:41:42;;;;;;;11.43;5.50;;;4.60;99.90;;;;;;4981868;28;20048;-84
2023/04/08 01:44:10;;;;;;;12.23;5.07;;;4.50;99.90;;;;;;5010799;28;22511;-84
2023/04/08 01:46:41;;;;;;;7.80;4.88;;;4.40;99.90;;;;;;4978535;28;20111;-84
2023/04/08 01:49:08;;;;;;;12.10;5.75;;;4.40;99.90;;;;;;4982356;28;20729;-83
2023/04/08 01:51:36;;;;;;;10.15;5.38;;;4.40;99.90;;;;;;5004754;28;20050;-82
2023/04/08 01:54:01;;;;;;;8.85;5.03;;;4.40;99.90;;;;;;4994352;28;20045;-83
2023/04/08 01:56:35;;;;;;;15.20;5.22;;;4.40;99.90;;;;;;4992501;28;20298;-83
2023/04/08 01:59:10;;;;;;;12.68;5.97;;;4.40;99.90;;;;;;4981974;28;20578;-84
2023/04/08 02:01:45;;;;;;;8.55;5.10;;;4.30;99.90;;;;;;5006765;28;20053;-84
2023/04/08 02:04:19;;;;;;;11.60;4.80;;;4.20;99.90;;;;;;4981967;28;20401;-83
2023/04/08 02:06:50;;;;;;;12.50;5.30;;;4.30;99.90;;;;;;4996868;28;20042;-83
2023/04/08 02:09:33;;;;;;;11.20;5.68;;;4.20;99.90;;;;;;4999248;28;20045;-83
2023/04/08 02:12:01;;;;;;;8.80;5.15;;;4.10;99.90;;;;;;4986890;28;20642;-84
2023/04/08 02:14:33;;;;;;;11.23;5.60;;;4.10;99.90;;;;;;4979432;28;20045;-85
2023/04/08 02:17:09;;;;;;;10.43;5.18;;;4.10;99.90;;;;;;4992978;28;20092;-84
2023/04/08 02:19:48;;;;;;;9.25;4.93;;;4.00;99.90;;;;;;4989292;28;20494;-83
2023/04/08 02:22:27;;;;;;;10.45;5.88;;;4.00;99.90;;;;;;4989289;28;20041;-84
2023/04/08 02:24:52;;;;;;;11.10;5.55;;;4.00;99.90;;;;;;4971649;28;20520;-83
2023/04/08 02:27:33;;;;;;;;;;;;;;;;;;;;;
2023/04/08 02:30:02;;;;;;;12.32;6.18;;;3.90;99.90;;;;;;4990792;28;20104;-84
2023/04/08 02:32:32;;;;;;;11.35;5.85;;;3.90;99.90;;;;;;5002524;28;20067;-84
2023/04/08 02:35:02;;;;;;;11.57;6.10;;;3.90;99.90;;;;;;4980912;28;20054;-83
2023/04/08 02:37:29;;;;;;;12.20;5.43;;;3.80;99.90;;;;;;4992311;28;20056;-84
2023/04/08 02:40:00;;;;;;;12.68;5.85;;;3.80;99.90;;;;;;4998614;28;20102;-83
2023/04/08 02:42:26;;;;;;;12.23;6.03;;;3.80;99.90;;;;;;4969644;28;20495;-83
2023/04/08 02:44:57;;;;;;;11.13;5.43;;;3.80;99.90;;;;;;4970962;28;20042;-81
2023/04/08 02:47:23;;;;;;;10.98;5.93;;;3.80;99.90;;;;;;4978498;28;20363;-83
2023/04/08 02:49:52;;;;;;;14.03;6.27;;;3.80;99.90;;;;;;4993517;28;20052;-83
2023/04/08 02:52:20;;;;;;;11.73;5.88;;;3.80;99.90;;;;;;4999646;28;20054;-84
2023/04/08 02:54:48;;;;;;;11.90;6.10;;;3.80;99.90;;;;;;4994645;28;20054;-83
2023/04/08 02:57:15;;;;;;;13.48;6.55;;;3.80;99.90;;;;;;4989129;28;20052;-82
2023/04/08 02:59:41;;;;;;;11.93;5.63;;;3.80;99.90;;;;;;4977000;28;20129;-82
2023/04/08 03:02:07;;;;;;;10.93;6.10;;;3.70;99.90;;;;;;4982505;28;20129;-83
2023/04/08 03:04:38;;;;;;;11.73;5.57;;;3.70;99.90;;;;;;4976120;28;20064;-84
2023/04/08 03:07:06;;;;;;;11.10;6.60;;;3.80;99.90;;;;;;4996305;28;20148;-83
2023/04/08 03:09:34;;;;;;;9.52;5.57;;;3.70;99.90;;;;;;4984957;28;20057;-83
2023/04/08 03:12:02;;;;;;;14.18;7.15;;;3.70;99.90;;;;;;4996026;28;20118;-84
2023/04/08 03:14:33;;;;;;;12.00;6.68;;;3.70;99.90;;;;;;4991041;28;20033;-83
2023/04/08 03:16:58;;;;;;;12.60;6.78;;;3.70;99.90;;;;;;4984538;28;20065;-84
2023/04/08 03:19:27;;;;;;;14.60;6.20;;;3.70;99.90;;;;;;5017664;28;20041;-84
2023/04/08 03:21:53;;;;;;;12.10;7.15;;;3.60;99.90;;;;;;4992432;28;20068;-84
2023/04/08 03:24:18;;;;;;;13.87;6.57;;;3.60;99.90;;;;;;4996000;28;20041;-83
2023/04/08 03:26:49;;;;;;;12.27;6.78;;;3.60;99.90;;;;;;4986298;28;20556;-84
2023/04/08 03:29:15;;;;;;;12.77;6.85;;;3.60;99.90;;;;;;4993071;28;20045;-84
2023/04/08 03:31:44;;;;;;;11.63;6.97;;;3.60;99.90;;;;;;4996099;28;20050;-84
2023/04/08 03:34:12;;;;;;;13.18;6.10;;;3.60;99.90;;;;;;4981001;28;20196;-83
2023/04/08 03:36:43;;;;;;;12.30;6.88;;;3.60;99.90;;;;;;4983855;28;20042;-83
2023/04/08 03:39:12;;;;;;;14.82;7.40;;;3.50;99.90;;;;;;4979102;28;20105;-83
2023/04/08 03:41:40;;;;;;;13.18;6.80;;;3.50;99.90;;;;;;4990663;28;20036;-83
2023/04/08 03:44:06;;;;;;;15.70;7.53;;;3.40;99.90;;;;;;4993162;28;20182;-83
2023/04/08 03:46:34;;;;;;;15.93;7.83;;;3.50;99.90;;;;;;4966740;28;20042;-83
2023/04/08 03:49:02;;;;;;;12.90;6.65;;;3.50;99.90;;;;;;4990280;28;20138;-84
2023/04/08 03:51:28;;;;;;;14.40;7.35;;;3.40;99.90;;;;;;4994967;28;20540;-83
2023/04/08 03:53:56;;;;;;;11.20;6.77;;;3.40;99.90;;;;;;4980311;28;20119;-83
2023/04/08 03:56:23;;;;;;;13.73;7.30;;;3.40;99.90;;;;;;4999924;28;20292;-83
2023/04/08 03:58:49;;;;;;;14.05;7.60;;;3.40;99.90;;;;;;5010203;28;20198;-83
2023/04/08 04:01:15;;;;;;;13.30;7.20;;;3.50;99.90;;;;;;5007379;28;20112;-81
2023/04/08 04:03:41;;;;;;;14.40;7.20;;;3.40;99.90;;;;;;4967899;28;20045;-83
2023/04/08 04:06:06;;;;;;;15.40;7.27;;;3.40;99.90;;;;;;4991652;28;20357;-83
2023/04/08 04:08:32;;;;;;;15.47;7.03;;;3.40;99.90;;;;;;5013751;28;20042;-83
2023/04/08 04:11:00;;;;;;;13.33;7.47;;;3.40;99.90;;;;;;4995698;28;20129;-83
2023/04/08 04:13:29;;;;;;;13.63;8.00;;;3.40;99.90;;;;;;4999971;28;20049;-83
2023/04/08 04:15:58;;;;;;;15.88;7.38;;;3.30;99.90;;;;;;4982676;28;20096;-83
2023/04/08 04:18:24;;;;;;;14.55;8.32;;;3.30;99.90;;;;;;4979763;28;20053;-83
2023/04/08 04:21:00;;;;;;;12.80;7.70;;;3.40;99.90;;;;;;4997936;28;20043;-83
2023/04/08 04:23:25;;;;;;;14.57;7.38;;;3.20;99.90;;;;;;4999292;28;20057;-83
2023/04/08 04:25:53;;;;;;;15.47;7.80;;;3.30;99.90;;;;;;5007761;28;20041;-83
2023/04/08 04:28:19;;;;;;;13.10;7.05;;;3.30;99.90;;;;;;4981683;28;20512;-84
2023/04/08 04:30:56;;;;;;;14.87;7.87;;;3.30;99.90;;;;;;4970898;28;20057;-83
2023/04/08 04:33:22;;;;;;;;;;;3.30;99.90;;;;;;4981369;28;20374;-83
2023/04/08 04:35:50;;;;;;;15.75;8.07;;;3.20;99.90;;;;;;4981902;28;19928;-83
2023/04/08 04:38:16;;;;;;;15.63;8.52;;;3.20;99.90;;;;;;5013863;28;20030;-83
2023/04/08 04:40:43;;;;;;;15.93;7.78;;;3.20;99.90;;;;;;4973679;28;20404;-83
2023/04/08 04:43:08;;;;;;;15.65;7.55;;;3.30;99.90;;;;;;4984976;28;20072;-84
2023/04/08 04:45:34;;;;;;;18.53;8.33;;;3.30;99.90;;;;;;4968667;28;20070;-83
2023/04/08 04:48:02;;;;;;;18.92;8.30;;;3.20;99.90;;;;;;4997090;28;20169;-81
2023/04/08 04:50:28;;;;;;;20.50;8.95;;;3.20;99.90;;;;;;5009364;28;20073;-84
2023/04/08 04:52:54;;;;;;;17.43;8.77;;;3.30;99.90;;;;;;4994503;28;20053;-83
2023/04/08 04:55:21;;;;;;;16.30;9.10;;;3.20;99.90;;;;;;4984894;28;20294;-83
2023/04/08 04:57:52;;;;;;;14.65;7.60;;;3.20;99.90;;;;;;4997071;28;20050;-83
2023/04/08 05:00:27;;;;;;;;;;;3.20;99.90;;;;;;4972449;28;20106;-84
2023/04/08 05:02:59;;;;;;;18.30;8.38;;;3.10;99.90;;;;;;5009219;28;19924;-84
2023/04/08 05:05:40;;;;;;;22.27;9.15;;;3.10;99.90;;;;;;4982575;28;20142;-84
2023/04/08 05:08:06;;;;;;;13.55;7.75;;;3.10;99.90;;;;;;4975399;28;20033;-83
2023/04/08 05:10:40;;;;;;;16.33;8.98;;;3.10;99.90;;;;;;4990501;28;20083;-83
2023/04/08 05:13:06;;;;;;;18.50;8.95;;;3.20;99.90;;;;;;4994606;28;20054;-83
2023/04/08 05:15:34;;;;;;;18.23;7.87;;;3.10;99.90;;;;;;5006179;28;20038;-83
2023/04/08 05:18:00;;;;;;;20.00;8.65;;;3.10;99.90;;;;;;4979467;28;20057;-84
2023/04/08 05:20:29;;;;;;;15.43;7.75;;;3.00;99.90;;;;;;4969214;28;20404;-83
2023/04/08 05:22:55;;;;;;;21.65;8.02;;;3.10;99.90;;;;;;4973038;28;20041;-84
2023/04/08 05:25:20;;;;;;;16.43;8.60;;;3.10;99.90;;;;;;4990608;28;20038;-83
2023/04/08 05:27:49;;;;;;;22.20;8.57;;;3.10;99.90;;;;;;4998987;28;20050;-83
2023/04/08 05:30:17;;;;;;;21.00;8.48;;;3.10;99.90;;;;;;4974976;28;20046;-83
2023/04/08 05:32:46;;;;;;;18.95;9.35;;;3.10;99.90;;;;;;4992071;28;20099;-84
2023/04/08 05:35:12;;;;;;;19.42;10.25;;;3.10;99.90;;;;;;4991839;28;20065;-84
2023/04/08 05:37:42;;;;;;;17.87;8.93;;;3.10;99.90;;;;;;5011719;28;20458;-83
2023/04/08 05:40:08;;;;;;;19.95;9.15;;;3.10;99.90;;;;;;5010479;28;20045;-83
2023/04/08 05:42:36;;;;;;;20.73;9.23;;;3.10;99.90;;;;;;5010839;28;20044;-83
2023/04/08 05:45:05;;;;;;;20.45;9.20;;;3.10;99.90;;;;;;4973573;28;20061;-83
2023/04/08 05:47:32;;;;;;;20.15;10.07;;;3.10;99.90;;;;;;4998772;28;20097;-83
2023/04/08 05:50:00;;;;;;;;;;;3.10;99.90;;;;;;4984092;28;20042;-83
2023/04/08 05:52:28;;;;;;;17.33;8.60;;;3.10;99.90;;;;;;5005877;28;19946;-83
2023/04/08 05:55:01;;;;;;;16.73;9.38;;;3.20;99.90;;;;;;4983547;28;20431;-84
2023/04/08 05:57:32;;;;;;;17.98;9.23;;;3.20;99.90;;;;;;4990910;28;20490;-84
2023/04/08 06:00:01;;;;;;;20.48;10.20;;;3.20;99.90;;;;;;4988756;28;20100;-83
2023/04/08 06:02:29;;;;;;;22.83;11.55;;;3.20;99.90;;;;;;4987606;28;20044;-84
2023/04/08 06:09:58;;;;;;;19.05;9.80;;;3.30;99.90;;;;;;5000424;28;20147;-70
2023/04/08 06:12:23;;;;;;;19.33;9.27;;;3.30;99.90;;;;;;4993378;28;20039;-71
2023/04/08 06:14:56;;;;;;;19.57;10.23;;;3.30;99.90;;;;;;4994487;28;20446;-70
2023/04/08 06:17:22;;;;;;;19.33;10.48;;;3.40;99.90;;;;;;4997396;28;20128;-71
2023/04/08 06:19:47;;;;;;;21.90;10.40;;;3.40;99.90;;;;;;5001124;28;20132;-71
2023/04/08 06:22:13;;;;;;;20.77;9.90;;;3.40;99.90;;;;;;4998022;28;20122;-72
2023/04/08 06:24:39;;;;;;;23.90;10.90;;;3.50;99.90;;;;;;4994355;28;20030;-73
2023/04/08 06:27:05;;;;;;;21.47;10.50;;;3.50;99.90;;;;;;5000148;28;20042;-78
2023/04/08 06:29:32;;;;;;;19.23;9.93;;;3.60;99.90;;;;;;4981992;28;20964;-77
2023/04/08 06:31:58;;;;;;;25.30;11.60;;;3.80;99.90;;;;;;4980911;28;20050;-71
2023/04/08 06:34:24;;;;;;;22.37;12.00;;;3.80;99.90;;;;;;4998644;28;20053;-77
2023/04/08 06:36:50;;;;;;;19.87;10.47;;;3.90;99.90;;;;;;4992347;28;20058;-70
2023/04/08 06:39:15;;;;;;;26.40;12.85;;;4.10;99.90;;;;;;4993555;28;20458;-71
2023/04/08 06:41:42;;;;;;;20.47;11.20;;;4.20;99.90;;;;;;5001097;28;20109;-70
2023/04/08 06:44:07;;;;;;;24.02;12.77;;;4.30;99.90;;;;;;4992490;28;20042;-71
2023/04/08 06:46:33;;;;;;;22.90;11.63;;;4.40;99.90;;;;;;4992898;28;20045;-70
2023/04/08 06:48:59;;;;;;;24.67;11.57;;;4.60;99.90;;;;;;5001017;28;20049;-71
2023/04/08 06:51:24;;;;;;;22.03;11.20;;;4.70;99.90;;;;;;4995223;28;20038;-69
2023/04/08 06:53:50;;;;;;;20.70;10.87;;;4.80;99.90;;;;;;5002574;28;20042;-69
2023/04/08 06:56:16;;;;;;;22.13;11.77;;;4.80;99.90;;;;;;4999710;28;20104;-68
2023/04/08 06:58:42;;;;;;;23.40;11.30;;;4.90;99.90;;;;;;5002766;28;20068;-69
2023/04/08 07:01:07;;;;;;;21.30;10.73;;;5.00;99.90;;;;;;4986592;28;20307;-69
2023/04/08 07:03:33;;;;;;;23.13;11.60;;;5.10;99.90;;;;;;4979199;28;20042;-69
2023/04/08 07:05:59;;;;;;;28.93;12.03;;;5.10;99.90;;;;;;4994900;28;20068;-69
2023/04/08 07:08:24;;;;;;;23.90;12.73;;;5.20;99.90;;;;;;4997859;28;20058;-69
2023/04/08 07:10:52;;;;;;;26.63;12.47;;;5.30;99.90;;;;;;5005356;28;20318;-69
2023/04/08 07:13:18;;;;;;;25.90;12.43;;;5.40;99.90;;;;;;5008172;28;20408;-69
2023/04/08 07:15:43;;;;;;;25.77;12.53;;;5.50;99.90;;;;;;5007184;28;20092;-69
2023/04/08 07:18:09;;;;;;;24.10;13.23;;;5.60;99.90;;;;;;5008821;28;20042;-69
2023/04/08 07:20:37;;;;;;;25.80;12.20;;;5.70;99.90;;;;;;5012122;28;20046;-69
2023/04/08 07:23:03;;;;;;;28.77;12.73;;;5.90;99.90;;;;;;5000514;28;20350;-69
2023/04/08 07:25:28;;;;;;;25.77;12.35;;;6.00;99.90;;;;;;5008750;28;20481;-69
2023/04/08 07:27:55;;;;;;;21.40;11.70;;;6.00;99.90;;;;;;5005661;28;20068;-69
2023/04/08 07:30:21;;;;;;;24.48;11.93;;;6.10;99.90;;;;;;5010012;28;20439;-69
2023/04/08 07:32:46;;;;;;;23.00;10.95;;;6.10;99.90;;;;;;4998113;28;20200;-69
2023/04/08 07:35:12;;;;;;;20.30;10.77;;;6.20;99.90;;;;;;4997147;28;20113;-69
2023/04/08 07:37:38;;;;;;;26.20;12.07;;;6.20;99.90;;;;;;5007018;28;20080;-69
2023/04/08 07:40:04;;;;;;;21.33;11.33;;;6.30;99.90;;;;;;5006353;28;20049;-68
2023/04/08 07:42:32;;;;;;;24.23;11.70;;;6.30;99.90;;;;;;5008001;28;20888;-69
2023/04/08 07:44:58;;;;;;;23.42;10.93;;;6.40;99.90;;;;;;5004830;28;20130;-69
2023/04/08 07:47:24;;;;;;;21.97;11.00;;;6.50;99.90;;;;;;5001964;28;20569;-69
2023/04/08 07:49:49;;;;;;;21.47;10.73;;;6.60;99.90;;;;;;5009021;28;20100;-69
2023/04/08 07:52:17;;;;;;;21.23;10.77;;;6.70;99.90;;;;;;4989757;28;20117;-69
2023/04/08 07:54:42;;;;;;;19.00;10.00;;;6.80;99.90;;;;;;5007508;28;20050;-69
2023/04/08 07:57:08;;;;;;;21.40;10.40;;;6.90;99.90;;;;;;5000241;28;20120;-69
2023/04/08 07:59:34;;;;;;;22.37;11.70;;;7.00;99.90;;;;;;5001664;28;20462;-69
2023/04/08 08:02:00;;;;;;;19.85;10.85;;;7.20;99.90;;;;;;4979610;28;20038;-69
2023/04/08 08:04:26;;;;;;;18.90;9.97;;;7.30;99.90;;;;;;5000690;28;20065;-69
2023/04/08 08:06:51;;;;;;;19.87;10.03;;;7.40;99.90;;;;;;5000297;28;20463;-69
2023/04/08 08:09:17;;;;;;;22.10;11.57;;;7.50;99.90;;;;;;4999126;28;20141;-69
2023/04/08 08:11:42;;;;;;;24.93;12.50;;;7.60;99.90;;;;;;5001712;28;20050;-69
2023/04/08 08:14:10;;;;;;;20.47;10.67;;;7.60;99.90;;;;;;5000121;28;20108;-69
2023/04/08 08:16:37;;;;;;;23.15;10.50;;;7.70;99.90;;;;;;5003183;28;20048;-69
2023/04/08 08:19:04;;;;;;;25.58;11.48;;;7.70;99.90;;;;;;5003718;28;20041;-68
2023/04/08 08:21:30;;;;;;;19.08;10.25;;;7.80;99.90;;;;;;4997692;28;20049;-69
2023/04/08 08:23:56;;;;;;;19.27;9.77;;;7.80;99.90;;;;;;5003192;28;20052;-69
2023/04/08 08:26:22;;;;;;;19.63;9.75;;;7.90;99.90;;;;;;4999369;28;20562;-68
2023/04/08 08:28:48;;;;;;;20.20;9.77;;;7.90;99.90;;;;;;4999440;28;20133;-68
2023/04/08 08:31:13;;;;;;;20.77;10.60;;;7.90;99.90;;;;;;5001128;28;20038;-69
2023/04/08 08:33:39;;;;;;;23.07;10.67;;;8.00;99.90;;;;;;5005508;28;20042;-69
2023/04/08 08:36:05;;;;;;;17.93;10.43;;;8.00;99.90;;;;;;4991927;28;20307;-69
2023/04/08 08:38:31;;;;;;;17.48;9.40;;;8.10;99.90;;;;;;4993396;28;20038;-69
2023/04/08 08:40:58;;;;;;;20.73;10.38;;;8.30;99.90;;;;;;4992636;28;20049;-69
2023/04/08 08:43:24;;;;;;;;;;;8.40;99.90;;;;;;4980678;28;20053;-69
2023/04/08 08:45:50;;;;;;;16.38;9.32;;;8.50;99.90;;;;;;4975268;28;19968;-68
2023/04/08 08:48:16;;;;;;;18.70;9.52;;;8.50;99.90;;;;;;5007429;28;20073;-69
2023/04/08 08:50:42;;;;;;;20.70;9.88;;;8.60;99.90;;;;;;4992007;28;20046;-69
2023/04/08 08:53:08;;;;;;;18.90;9.10;;;8.60;99.90;;;;;;5003586;28;20049;-69
2023/04/08 08:55:33;;;;;;;17.60;10.07;;;8.70;99.90;;;;;;4998346;28;22534;-69
2023/04/08 08:58:03;;;;;;;15.47;8.73;;;8.80;99.90;;;;;;4998292;28;20140;-69
2023/04/08 09:00:33;;;;;;;14.18;8.85;;;9.00;99.90;;;;;;5000216;28;20124;-69
2023/04/08 09:03:19;;;;;;;14.77;8.73;;;9.20;99.90;;;;;;4984291;28;20057;-70
2023/04/08 09:05:51;;;;;;;14.98;8.52;;;9.40;99.90;;;;;;4995528;28;20050;-69
2023/04/08 09:08:31;;;;;;;15.57;8.88;;;9.50;99.90;;;;;;5001761;28;20530;-69
2023/04/08 09:11:17;;;;;;;12.27;7.55;;;9.60;99.90;;;;;;4998921;28;20299;-69
2023/04/08 09:13:44;;;;;;;11.98;6.63;;;9.70;99.90;;;;;;4998982;28;20316;-69
2023/04/08 09:16:13;;;;;;;11.30;6.53;;;9.60;99.90;;;;;;4997226;28;20052;-69
2023/04/08 09:18:43;;;;;;;11.27;6.18;;;9.60;99.90;;;;;;5001758;28;20096;-69
2023/04/08 09:21:09;;;;;;;10.23;5.93;;;9.50;99.90;;;;;;5001432;28;20488;-69
2023/04/08 09:23:46;;;;;;;9.40;5.90;;;9.50;99.90;;;;;;4997681;28;20380;-69
2023/04/08 09:26:13;;;;;;;11.65;6.40;;;9.60;99.90;;;;;;4999028;28;20096;-69
2023/04/08 09:28:40;;;;;;;13.20;6.03;;;9.70;99.90;;;;;;4997764;28;20120;-69
2023/04/08 09:31:23;;;;;;;9.65;5.50;;;9.90;99.90;;;;;;4997098;28;20041;-68
2023/04/08 09:33:51;;;;;;;10.95;5.97;;;10.00;99.90;;;;;;4982646;28;20451;-69
2023/04/08 09:36:17;;;;;;;12.43;6.63;;;10.10;99.90;;;;;;4993723;28;20207;-69
2023/04/08 09:38:43;;;;;;;13.75;5.93;;;10.30;99.90;;;;;;4999180;28;20132;-69
2023/04/08 09:41:15;;;;;;;9.75;5.63;;;10.40;99.90;;;;;;4979152;28;20038;-69
2023/04/08 09:43:48;;;;;;;11.25;6.03;;;10.40;99.90;;;;;;4999176;28;20046;-69
2023/04/08 09:46:18;;;;;;;11.43;6.03;;;10.40;99.90;;;;;;4997678;28;20883;-69
2023/04/08 09:48:50;;;;;;;8.68;5.72;;;10.40;99.90;;;;;;4997919;28;20577;-69
2023/04/08 09:51:18;;;;;;;9.13;5.18;;;10.40;99.90;;;;;;4998909;28;20125;-69
2023/04/08 09:53:47;;;;;;;11.23;5.85;;;10.30;99.90;;;;;;5001915;28;20057;-69
2023/04/08 09:56:16;;;;;;;9.35;6.13;;;10.30;99.90;;;;;;5001627;28;20057;-69
2023/04/08 09:58:51;;;;;;;10.80;5.72;;;10.20;99.90;;;;;;5003874;28;20100;-69
2023/04/08 10:01:23;;;;;;;11.82;6.05;;;10.10;99.90;;;;;;5003323;28;20072;-69
2023/04/08 10:03:53;;;;;;;9.00;5.35;;;10.00;99.90;;;;;;4995539;28;20042;-69
2023/04/08 10:06:21;;;;;;;9.65;5.70;;;10.00;99.90;;;;;;5008594;28;20157;-68
2023/04/08 10:08:49;;;;;;;9.30;5.70;;;9.90;99.90;;;;;;5007931;28;20408;-69
2023/04/08 10:11:18;;;;;;;8.98;4.75;;;9.90;99.90;;;;;;5011241;28;20046;-69
2023/04/08 10:13:44;;;;;;;10.55;5.90;;;9.80;99.90;;;;;;5010853;28;20573;-69
2023/04/08 10:16:17;;;;;;;10.63;6.20;;;9.70;99.90;;;;;;5004974;28;20049;-69
2023/04/08 10:18:43;;;;;;;10.65;5.45;;;9.70;99.90;;;;;;5004769;28;20103;-69
2023/04/08 10:21:48;;;;;;;10.82;6.18;;;9.70;99.90;;;;;;5005121;28;20057;-69
2023/04/08 10:24:14;;;;;;;10.60;5.80;;;9.70;99.90;;;;;;5004591;28;20064;-69
2023/04/08 10:26:44;;;;;;;12.17;6.47;;;9.60;99.90;;;;;;4995990;28;20149;-69
2023/04/08 10:29:28;;;;;;;12.52;6.60;;;9.70;99.90;;;;;;5005171;28;20108;-68
2023/04/08 10:31:56;;;;;;;11.85;6.88;;;9.70;99.90;;;;;;4996443;28;20049;-68
2023/04/08 10:34:23;;;;;;;11.20;6.18;;;9.70;99.90;;;;;;5001124;28;20077;-68
2023/04/08 10:36:52;;;;;;;12.55;6.60;;;9.60;99.90;;;;;;4996769;28;20052;-68
2023/04/08 10:39:18;;;;;;;15.25;7.35;;;9.70;99.90;;;;;;5003531;28;20566;-68
2023/04/08 10:41:48;;;;;;;14.57;7.00;;;9.70;99.90;;;;;;5003817;28;20462;-68
2023/04/08 10:44:17;;;;;;;13.27;7.43;;;9.70;99.90;;;;;;4982349;28;20045;-68
2023/04/08 10:46:45;;;;;;;11.82;7.07;;;9.60;99.90;;;;;;5007447;28;20038;-68
2023/04/08 10:49:12;;;;;;;14.27;7.50;;;9.60;99.90;;;;;;4999787;28;20084;-68
2023/04/08 10:51:38;;;;;;;;;;;9.60;99.90;;;;;;4988764;28;20038;-68
2023/04/08 10:54:06;;;;;;;12.82;7.40;;;9.50;99.90;;;;;;5007950;28;19932;-68
2023/04/08 10:56:33;;;;;;;12.13;6.88;;;9.50;99.90;;;;;;5006268;28;20068;-68
2023/04/08 10:58:59;;;;;;;11.77;6.93;;;9.50;99.90;;;;;;5003194;28;20050;-68
2023/04/08 11:01:25;;;;;;;11.52;6.45;;;9.50;99.90;;;;;;5002935;28;20557;-68
2023/04/08 11:03:51;;;;;;;12.57;7.00;;;9.50;99.90;;;;;;4999963;28;20038;-68
2023/04/08 11:06:18;;;;;;;12.80;6.87;;;9.50;99.90;;;;;;4999373;28;20041;-68
2023/04/08 11:08:44;;;;;;;;;;;9.50;99.90;;;;;;5007573;28;20777;-68
2023/04/08 11:11:10;;;;;;;12.23;6.45;;;9.50;99.90;;;;;;5009803;28;20280;-68
2023/04/08 11:13:38;;;;;;;;;;;9.60;99.90;;;;;;5005392;28;20503;-68
2023/04/08 11:16:05;;;;;;;11.63;6.82;;;9.60;99.90;;;;;;4987072;28;19932;-68
2023/04/08 11:18:31;;;;;;;12.63;7.18;;;9.60;99.90;;;;;;5003027;28;20429;-68
2023/04/08 11:20:57;;;;;;;16.02;7.18;;;9.70;99.90;;;;;;5003442;28;20064;-68
2023/04/08 11:23:26;;;;;;;14.20;7.93;;;9.70;99.90;;;;;;4996277;28;20042;-68
2023/04/08 11:25:52;;;;;;;12.60;7.55;;;9.80;99.90;;;;;;4998956;28;20432;-68
2023/04/08 11:28:19;;;;;;;13.70;7.45;;;9.70;99.90;;;;;;4996775;28;20484;-68
2023/04/08 11:30:47;;;;;;;14.52;8.55;;;9.70;99.90;;;;;;4998672;28;20058;-68
2023/04/08 11:33:13;;;;;;;15.48;8.35;;;9.70;99.90;;;;;;4992237;28;20484;-68
2023/04/08 11:35:40;;;;;;;15.50;7.93;;;9.70;99.90;;;;;;4994554;28;20037;-68
2023/04/08 11:38:09;;;;;;;12.68;7.13;;;9.70;99.90;;;;;;4988478;28;20082;-68
2023/04/08 11:40:35;;;;;;;13.55;7.03;;;9.80;99.90;;;;;;4995112;28;20060;-68
2023/04/08 11:43:12;;;;;;;15.00;8.05;;;9.80;99.90;;;;;;5002795;28;20526;-68
2023/04/08 11:45:39;;;;;;;17.60;9.88;;;9.80;99.90;;;;;;5013414;28;20483;-68
2023/04/08 11:48:12;;;;;;;16.38;8.93;;;9.90;99.90;;;;;;4997796;28;20123;-68
2023/04/08 11:50:39;;;;;;;17.58;8.35;;;9.90;99.90;;;;;;4997442;28;20041;-68
2023/04/08 11:53:19;;;;;;;15.50;8.57;;;10.00;99.90;;;;;;4992838;28;20064;-68
2023/04/08 11:55:45;;;;;;;15.32;8.38;;;10.10;99.90;;;;;;4996048;28;20070;-68
2023/04/08 11:58:11;;;;;;;14.57;8.13;;;10.20;99.90;;;;;;4994708;28;20112;-68
2023/04/08 12:00:37;;;;;;;13.40;7.57;;;10.30;99.90;;;;;;4990061;28;20571;-68
2023/04/08 12:03:03;;;;;;;16.02;9.07;;;10.30;99.90;;;;;;5004278;28;20531;-68
2023/04/08 12:07:59;;;;;;;16.23;8.88;;;10.30;99.90;;;;;;5040822;28;20041;-72
2023/04/08 12:10:27;;;;;;;17.25;9.18;;;10.40;99.90;;;;;;5028011;28;20186;-72
2023/04/08 12:12:53;;;;;;;15.30;8.63;;;10.30;99.90;;;;;;5034665;28;20037;-72
2023/04/08 12:15:18;;;;;;;18.43;9.37;;;10.30;99.90;;;;;;5027547;28;20032;-72
2023/04/08 12:17:44;;;;;;;14.23;8.30;;;10.30;99.90;;;;;;5029527;28;20390;-72
2023/04/08 12:20:11;;;;;;;17.27;9.35;;;10.30;99.90;;;;;;5036152;28;20571;-72
2023/04/08 12:22:37;;;;;;;16.58;9.07;;;10.30;99.90;;;;;;5034830;28;20412;-72
2023/04/08 12:25:03;;;;;;;18.73;8.38;;;10.30;99.90;;;;;;5032545;28;20098;-72
2023/04/08 12:27:32;;;;;;;20.45;8.80;;;10.20;99.90;;;;;;5029610;28;20044;-72
2023/04/08 12:29:58;;;;;;;18.52;8.60;;;10.30;99.90;;;;;;5034445;28;20086;-72
2023/04/08 12:32:24;;;;;;;17.40;8.68;;;10.30;99.90;;;;;;5029519;28;20068;-72
2023/04/08 12:34:50;;;;;;;22.50;10.68;;;10.30;99.90;;;;;;5018779;28;20080;-71
2023/04/08 12:37:16;;;;;;;18.33;8.93;;;10.30;99.90;;;;;;5030807;28;20395;-72
2023/04/08 12:39:41;;;;;;;19.13;9.63;;;10.40;99.90;;;;;;5027175;28;20220;-72
2023/04/08 12:42:07;;;;;;;21.47;9.43;;;10.40;99.90;;;;;;5024788;28;20283;-72
2023/04/08 12:44:33;;;;;;;20.97;9.43;;;10.40;99.90;;;;;;5032013;28;20035;-72
2023/04/08 12:47:01;;;;;;;19.47;9.27;;;10.40;99.90;;;;;;5030078;28;20440;-72
2023/04/08 12:49:26;;;;;;;18.17;9.18;;;10.40;99.90;;;;;;5030122;28;20189;-72
2023/04/08 12:51:52;;;;;;;21.13;10.50;;;10.40;99.90;;;;;;5035850;28;20442;-72
2023/04/08 12:54:18;;;;;;;24.60;10.45;;;10.40;99.90;;;;;;5031823;28;20116;-72
2023/04/08 12:56:47;;;;;;;21.63;10.85;;;10.40;99.90;;;;;;5030666;28;20469;-72
2023/04/08 12:59:16;;;;;;;18.90;9.73;;;10.40;99.90;;;;;;5036885;28;20108;-72
2023/04/08 13:01:42;;;;;;;26.02;10.35;;;10.40;99.90;;;;;;5025836;28;20041;-72